sensor_id;sensor_type;location;lat;lon;timestamp;pressure;altitude;pressure_sealevel;temperature;humidity
26192;BME280;13935;55.672;37.764;2022-12-04T06:12:40;103267.94;;;-8.63;100.00
26192;BME280;13935;55.672;37.764;2022-12-04T06:17:40;103269.25;;;-8.82;100.00
26192;BME280;13935;55.672;37.764;2022-12-04T06:18:48;103266.81;;;-8.69;100.00
26192;BME280;13935;55.672;37.764;2022-12-04T06:19:51;103276.41;;;-8.74;100.00
26192;BME280;13935;55.672;37.764;2022-12-04T06:21:00;103270.22;;;-8.75;100.00
26192;BME280;13935;55.672;37.764;2022-12-04T06:22:08;103272.66;;;-8.96;100.00
26192;BME280;13935;55.672;37.764;2022-12-04T06:23:17;103264.38;;;-8.78;100.00
26192;BME280;13935;55.672;37.764;2022-12-04T06:24:23;103274.50;;;-8.66;100.00
26192;BME280;13935;55.672;37.764;2022-12-04T06:25:51;103269.97;;;-8.65;100.00
26192;BME280;13935;55.672;37.764;2022-12-04T06:26:59;103266.09;;;-8.85;100.00
26192;BME280;13935;55.672;37.764;2022-12-04T06:28:46;103271.84;;;-8.74;100.00
26192;BME280;13935;55.672;37.764;2022-12-04T06:31:56;103273.75;;;-8.82;100.00
26192;BME280;13935;55.672;37.764;2022-12-04T06:33:06;103274.63;;;-8.59;100.00
26192;BME280;13935;55.672;37.764;2022-12-04T06:34:14;103285.22;;;-8.43;100.00
26192;BME280;13935;55.672;37.764;2022-12-04T06:35:27;103274.25;;;-8.56;100.00
26192;BME280;13935;55.672;37.764;2022-12-04T06:36:29;103277.69;;;-8.70;100.00
26192;BME280;13935;55.672;37.764;2022-12-04T06:37:34;103278.75;;;-8.71;100.00
26192;BME280;13935;55.672;37.764;2022-12-04T06:38:40;103274.38;;;-8.72;100.00
26192;BME280;13935;55.672;37.764;2022-12-04T06:39:47;103269.50;;;-8.46;100.00
26192;BME280;13935;55.672;37.764;2022-12-04T06:40:50;103270.44;;;-8.40;100.00
26192;BME280;13935;55.672;37.764;2022-12-04T06:41:52;103272.06;;;-8.31;100.00
26192;BME280;13935;55.672;37.764;2022-12-04T06:42:57;103274.06;;;-8.33;100.00
26192;BME280;13935;55.672;37.764;2022-12-04T06:44:00;103277.13;;;-8.36;100.00
26192;BME280;13935;55.672;37.764;2022-12-04T06:45:02;103276.75;;;-8.33;100.00
26192;BME280;13935;55.672;37.764;2022-12-04T06:46:11;103282.84;;;-8.39;100.00
26192;BME280;13935;55.672;37.764;2022-12-04T06:47:14;103280.44;;;-8.34;100.00
26192;BME280;13935;55.672;37.764;2022-12-04T06:48:19;103282.13;;;-8.33;100.00
26192;BME280;13935;55.672;37.764;2022-12-04T06:49:22;103280.34;;;-8.40;100.00
26192;BME280;13935;55.672;37.764;2022-12-04T06:50:29;103283.44;;;-8.29;100.00
26192;BME280;13935;55.672;37.764;2022-12-04T06:51:35;103288.38;;;-8.40;100.00
26192;BME280;13935;55.672;37.764;2022-12-04T06:52:39;103286.19;;;-8.37;100.00
26192;BME280;13935;55.672;37.764;2022-12-04T06:54:04;103282.50;;;-8.36;100.00
26192;BME280;13935;55.672;37.764;2022-12-04T06:55:10;103287.25;;;-8.45;100.00
26192;BME280;13935;55.672;37.764;2022-12-04T06:56:21;103277.94;;;-8.35;100.00
26192;BME280;13935;55.672;37.764;2022-12-04T06:58:13;103281.34;;;-8.04;100.00
26192;BME280;13935;55.672;37.764;2022-12-04T07:06:22;103282.25;;;-8.12;100.00
26192;BME280;13935;55.672;37.764;2022-12-04T07:25:08;103303.72;;;-7.75;100.00
26192;BME280;13935;55.672;37.764;2022-12-04T07:26:12;103303.19;;;-7.56;100.00
26192;BME280;13935;55.672;37.764;2022-12-04T07:27:15;103308.56;;;-7.42;100.00
26192;BME280;13935;55.672;37.764;2022-12-04T07:28:17;103313.41;;;-7.37;100.00
26192;BME280;13935;55.672;37.764;2022-12-04T07:29:19;103302.66;;;-7.37;100.00
26192;BME280;13935;55.672;37.764;2022-12-04T07:30:22;103309.78;;;-7.01;100.00
26192;BME280;13935;55.672;37.764;2022-12-04T07:31:26;103315.25;;;-6.59;99.61
26192;BME280;13935;55.672;37.764;2022-12-04T07:32:33;103310.69;;;-5.96;96.53
26192;BME280;13935;55.672;37.764;2022-12-04T07:33:37;103308.16;;;-5.50;92.75
26192;BME280;13935;55.672;37.764;2022-12-04T07:34:42;103303.31;;;-4.80;90.58
26192;BME280;13935;55.672;37.764;2022-12-04T07:35:44;103306.34;;;-4.56;86.34
26192;BME280;13935;55.672;37.764;2022-12-04T07:36:55;103310.16;;;-4.18;82.71
26192;BME280;13935;55.672;37.764;2022-12-04T07:37:58;103308.53;;;-3.74;80.48
26192;BME280;13935;55.672;37.764;2022-12-04T07:39:02;103312.69;;;-3.58;75.99
26192;BME280;13935;55.672;37.764;2022-12-04T07:40:06;103303.94;;;-3.54;74.12
26192;BME280;13935;55.672;37.764;2022-12-04T07:41:11;103304.88;;;-3.03;75.40
26192;BME280;13935;55.672;37.764;2022-12-04T07:42:19;103303.91;;;-3.28;71.71
26192;BME280;13935;55.672;37.764;2022-12-04T07:43:27;103306.56;;;-3.02;71.49
26192;BME280;13935;55.672;37.764;2022-12-04T07:44:31;103305.31;;;-3.19;69.87
26192;BME280;13935;55.672;37.764;2022-12-04T07:45:38;103305.78;;;-2.66;70.92
26192;BME280;13935;55.672;37.764;2022-12-04T07:46:56;103316.91;;;-2.86;67.08
26192;BME280;13935;55.672;37.764;2022-12-04T07:48:10;103307.50;;;-2.78;65.36
26192;BME280;13935;55.672;37.764;2022-12-04T07:49:30;103323.72;;;-1.97;65.52
26192;BME280;13935;55.672;37.764;2022-12-04T07:50:37;103310.59;;;-2.30;63.18
26192;BME280;13935;55.672;37.764;2022-12-04T07:51:41;103313.22;;;-2.55;61.82
26192;BME280;13935;55.672;37.764;2022-12-04T07:52:45;103310.94;;;-2.20;61.97
26192;BME280;13935;55.672;37.764;2022-12-04T07:53:49;103308.94;;;-2.31;62.28
26192;BME280;13935;55.672;37.764;2022-12-04T07:54:56;103312.94;;;-2.03;62.71
26192;BME280;13935;55.672;37.764;2022-12-04T07:56:05;103314.13;;;-1.99;61.45
26192;BME280;13935;55.672;37.764;2022-12-04T07:57:09;103314.78;;;-2.72;61.01
26192;BME280;13935;55.672;37.764;2022-12-04T07:58:13;103310.91;;;-2.95;62.25
26192;BME280;13935;55.672;37.764;2022-12-04T07:59:17;103308.25;;;-3.14;64.03
26192;BME280;13935;55.672;37.764;2022-12-04T08:00:21;103308.59;;;-2.91;63.09
26192;BME280;13935;55.672;37.764;2022-12-04T08:01:23;103315.41;;;-2.76;62.64
26192;BME280;13935;55.672;37.764;2022-12-04T08:02:27;103317.03;;;-2.62;62.44
26192;BME280;13935;55.672;37.764;2022-12-04T08:03:32;103317.47;;;-2.72;61.49
26192;BME280;13935;55.672;37.764;2022-12-04T08:04:37;103312.66;;;-2.63;62.80
26192;BME280;13935;55.672;37.764;2022-12-04T08:05:39;103321.78;;;-3.14;61.14
26192;BME280;13935;55.672;37.764;2022-12-04T08:07:09;103309.16;;;-3.46;63.79
26192;BME280;13935;55.672;37.764;2022-12-04T08:08:18;103315.81;;;-3.81;64.48
26192;BME280;13935;55.672;37.764;2022-12-04T08:09:22;103311.88;;;-3.72;66.71
26192;BME280;13935;55.672;37.764;2022-12-04T08:10:26;103306.66;;;-3.86;67.04
26192;BME280;13935;55.672;37.764;2022-12-04T08:11:30;103306.66;;;-3.93;67.22
26192;BME280;13935;55.672;37.764;2022-12-04T08:13:03;103313.28;;;-4.08;67.26
26192;BME280;13935;55.672;37.764;2022-12-04T08:14:10;103308.13;;;-3.97;67.09
26192;BME280;13935;55.672;37.764;2022-12-04T08:15:14;103308.75;;;-3.88;67.68
26192;BME280;13935;55.672;37.764;2022-12-04T08:16:20;103314.78;;;-3.80;66.49
26192;BME280;13935;55.672;37.764;2022-12-04T08:17:24;103307.09;;;-3.57;66.66
26192;BME280;13935;55.672;37.764;2022-12-04T08:18:27;103311.22;;;-3.61;66.51
26192;BME280;13935;55.672;37.764;2022-12-04T08:19:31;103313.28;;;-3.50;65.55
26192;BME280;13935;55.672;37.764;2022-12-04T08:20:33;103309.38;;;-3.48;65.53
26192;BME280;13935;55.672;37.764;2022-12-04T08:21:36;103302.69;;;-3.45;65.44
26192;BME280;13935;55.672;37.764;2022-12-04T08:22:40;103310.19;;;-3.53;66.77
26192;BME280;13935;55.672;37.764;2022-12-04T08:23:44;103314.75;;;-4.06;66.35
26192;BME280;13935;55.672;37.764;2022-12-04T08:24:51;103303.25;;;-4.46;67.44
26192;BME280;13935;55.672;37.764;2022-12-04T08:26:00;103307.59;;;-4.52;69.12
26192;BME280;13935;55.672;37.764;2022-12-04T08:27:08;103306.53;;;-4.57;70.25
26192;BME280;13935;55.672;37.764;2022-12-04T08:28:11;103305.94;;;-4.40;71.54
26192;BME280;13935;55.672;37.764;2022-12-04T08:29:15;103312.34;;;-4.60;70.98
26192;BME280;13935;55.672;37.764;2022-12-04T08:30:20;103306.59;;;-4.38;72.00
26192;BME280;13935;55.672;37.764;2022-12-04T08:31:26;103306.47;;;-4.77;72.19
26192;BME280;13935;55.672;37.764;2022-12-04T08:32:32;103305.38;;;-4.89;72.68
26192;BME280;13935;55.672;37.764;2022-12-04T08:33:39;103311.31;;;-4.59;73.34
26192;BME280;13935;55.672;37.764;2022-12-04T08:34:48;103311.69;;;-4.75;72.11
26192;BME280;13935;55.672;37.764;2022-12-04T08:35:58;103310.09;;;-4.50;73.43
26192;BME280;13935;55.672;37.764;2022-12-04T08:37:02;103306.56;;;-4.51;72.10
26192;BME280;13935;55.672;37.764;2022-12-04T08:38:07;103312.13;;;-4.65;72.31
26192;BME280;13935;55.672;37.764;2022-12-04T08:39:10;103302.66;;;-4.35;72.58
26192;BME280;13935;55.672;37.764;2022-12-04T08:40:15;103307.03;;;-4.28;73.00
26192;BME280;13935;55.672;37.764;2022-12-04T08:41:21;103313.84;;;-4.45;72.07
26192;BME280;13935;55.672;37.764;2022-12-04T08:42:55;103315.25;;;-4.62;71.69
26192;BME280;13935;55.672;37.764;2022-12-04T08:48:08;103304.66;;;-4.63;74.29
26192;BME280;13935;55.672;37.764;2022-12-04T08:49:17;103304.00;;;-4.72;73.20
26192;BME280;13935;55.672;37.764;2022-12-04T08:50:22;103304.94;;;-4.92;73.83
26192;BME280;13935;55.672;37.764;2022-12-04T08:51:33;103306.22;;;-4.88;74.12
26192;BME280;13935;55.672;37.764;2022-12-04T08:52:39;103305.53;;;-5.03;73.81
26192;BME280;13935;55.672;37.764;2022-12-04T08:56:03;103311.72;;;-5.09;76.17
26192;BME280;13935;55.672;37.764;2022-12-04T08:57:13;103305.69;;;-5.11;77.03
26192;BME280;13935;55.672;37.764;2022-12-04T08:58:21;103312.13;;;-5.12;76.29
26192;BME280;13935;55.672;37.764;2022-12-04T08:59:24;103308.00;;;-5.08;77.43
26192;BME280;13935;55.672;37.764;2022-12-04T09:00:32;103309.19;;;-4.70;78.20
26192;BME280;13935;55.672;37.764;2022-12-04T09:03:44;103302.19;;;-5.05;77.72
26192;BME280;13935;55.672;37.764;2022-12-04T09:04:58;103298.69;;;-4.99;77.79
26192;BME280;13935;55.672;37.764;2022-12-04T09:06:27;103300.75;;;-5.01;76.86
26192;BME280;13935;55.672;37.764;2022-12-04T09:07:45;103304.03;;;-5.12;77.84
26192;BME280;13935;55.672;37.764;2022-12-04T09:08:53;103301.88;;;-5.23;78.51
26192;BME280;13935;55.672;37.764;2022-12-04T09:10:09;103300.81;;;-4.88;78.59
26192;BME280;13935;55.672;37.764;2022-12-04T09:11:58;103302.53;;;-4.74;76.99
26192;BME280;13935;55.672;37.764;2022-12-04T09:13:06;103301.31;;;-4.72;77.50
26192;BME280;13935;55.672;37.764;2022-12-04T09:14:16;103304.56;;;-4.83;77.26
26192;BME280;13935;55.672;37.764;2022-12-04T09:15:28;103300.25;;;-4.71;77.64
26192;BME280;13935;55.672;37.764;2022-12-04T09:16:33;103303.84;;;-4.51;77.64
26192;BME280;13935;55.672;37.764;2022-12-04T09:17:36;103298.63;;;-4.72;77.11
26192;BME280;13935;55.672;37.764;2022-12-04T09:18:39;103295.22;;;-4.80;77.11
26192;BME280;13935;55.672;37.764;2022-12-04T09:19:42;103299.22;;;-4.76;77.17
26192;BME280;13935;55.672;37.764;2022-12-04T09:20:44;103300.19;;;-4.90;76.69
26192;BME280;13935;55.672;37.764;2022-12-04T09:21:48;103292.34;;;-4.79;77.56
26192;BME280;13935;55.672;37.764;2022-12-04T09:22:50;103302.88;;;-4.90;77.25
26192;BME280;13935;55.672;37.764;2022-12-04T09:24:12;103298.28;;;-4.96;78.41
26192;BME280;13935;55.672;37.764;2022-12-04T09:25:18;103294.16;;;-4.92;79.17
26192;BME280;13935;55.672;37.764;2022-12-04T09:26:28;103290.34;;;-5.10;78.59
26192;BME280;13935;55.672;37.764;2022-12-04T09:27:35;103292.31;;;-5.32;80.91
26192;BME280;13935;55.672;37.764;2022-12-04T09:28:38;103296.41;;;-5.36;81.35
26192;BME280;13935;55.672;37.764;2022-12-04T09:29:42;103295.47;;;-5.22;81.24
26192;BME280;13935;55.672;37.764;2022-12-04T09:32:03;103301.34;;;-5.46;82.37
26192;BME280;13935;55.672;37.764;2022-12-04T09:33:05;103295.19;;;-5.33;82.56
26192;BME280;13935;55.672;37.764;2022-12-04T09:34:09;103288.09;;;-5.41;82.12
26192;BME280;13935;55.672;37.764;2022-12-04T09:35:11;103302.03;;;-5.65;82.49
26192;BME280;13935;55.672;37.764;2022-12-04T09:36:17;103294.63;;;-5.56;82.43
26192;BME280;13935;55.672;37.764;2022-12-04T09:37:21;103292.88;;;-5.43;83.35
26192;BME280;13935;55.672;37.764;2022-12-04T09:38:26;103297.34;;;-5.22;83.00
26192;BME280;13935;55.672;37.764;2022-12-04T09:39:30;103293.63;;;-5.21;82.89
26192;BME280;13935;55.672;37.764;2022-12-04T09:40:43;103291.09;;;-5.23;82.61
26192;BME280;13935;55.672;37.764;2022-12-04T09:42:02;103291.66;;;-5.67;82.56
26192;BME280;13935;55.672;37.764;2022-12-04T09:44:24;103288.78;;;-5.93;84.84
26192;BME280;13935;55.672;37.764;2022-12-04T09:45:33;103290.16;;;-5.76;85.22
26192;BME280;13935;55.672;37.764;2022-12-04T09:46:57;103302.69;;;-5.90;86.36
26192;BME280;13935;55.672;37.764;2022-12-04T09:48:01;103296.16;;;-5.74;86.02
26192;BME280;13935;55.672;37.764;2022-12-04T09:49:38;103293.38;;;-5.87;86.28
26192;BME280;13935;55.672;37.764;2022-12-04T09:50:44;103300.34;;;-5.99;86.96
26192;BME280;13935;55.672;37.764;2022-12-04T09:51:49;103291.69;;;-6.16;86.57
26192;BME280;13935;55.672;37.764;2022-12-04T09:53:00;103295.28;;;-6.09;88.19
26192;BME280;13935;55.672;37.764;2022-12-04T09:54:15;103294.19;;;-6.14;88.14
26192;BME280;13935;55.672;37.764;2022-12-04T09:55:24;103292.13;;;-6.12;88.87
26192;BME280;13935;55.672;37.764;2022-12-04T09:56:32;103280.97;;;-6.09;89.18
26192;BME280;13935;55.672;37.764;2022-12-04T09:57:41;103283.69;;;-6.30;89.36
26192;BME280;13935;55.672;37.764;2022-12-04T09:58:51;103286.69;;;-6.19;90.30
26192;BME280;13935;55.672;37.764;2022-12-04T09:59:56;103286.78;;;-6.06;90.15
26192;BME280;13935;55.672;37.764;2022-12-04T10:00:59;103287.25;;;-6.02;90.98
26192;BME280;13935;55.672;37.764;2022-12-04T10:03:31;103280.19;;;-6.03;91.42
26192;BME280;13935;55.672;37.764;2022-12-04T10:04:41;103285.19;;;-6.00;90.34
26192;BME280;13935;55.672;37.764;2022-12-04T10:08:45;103280.41;;;-5.77;90.50
26192;BME280;13935;55.672;37.764;2022-12-04T10:16:07;103275.41;;;-6.08;90.13
26192;BME280;13935;55.672;37.764;2022-12-04T10:22:32;103271.53;;;-6.20;92.33
26192;BME280;13935;55.672;37.764;2022-12-04T10:25:23;103271.84;;;-6.08;92.49
26192;BME280;13935;55.672;37.764;2022-12-04T10:26:35;103268.19;;;-6.01;92.52
26192;BME280;13935;55.672;37.764;2022-12-04T10:28:00;103271.09;;;-6.02;92.13
26192;BME280;13935;55.672;37.764;2022-12-04T10:29:19;103266.09;;;-6.05;92.62
26192;BME280;13935;55.672;37.764;2022-12-04T10:30:36;103263.09;;;-5.89;92.24
26192;BME280;13935;55.672;37.764;2022-12-04T10:32:17;103263.56;;;-6.07;91.11
26192;BME280;13935;55.672;37.764;2022-12-04T10:33:57;103255.47;;;-6.13;92.55
26192;BME280;13935;55.672;37.764;2022-12-04T10:35:30;103256.09;;;-6.11;93.28
26192;BME280;13935;55.672;37.764;2022-12-04T10:36:50;103255.22;;;-6.18;92.95
26192;BME280;13935;55.672;37.764;2022-12-04T10:37:59;103261.31;;;-6.03;93.21
26192;BME280;13935;55.672;37.764;2022-12-04T10:39:28;103251.34;;;-6.09;92.51
26192;BME280;13935;55.672;37.764;2022-12-04T10:40:47;103263.69;;;-5.94;92.71
26192;BME280;13935;55.672;37.764;2022-12-04T10:42:10;103252.34;;;-6.10;92.74
26192;BME280;13935;55.672;37.764;2022-12-04T10:43:32;103251.75;;;-6.12;92.95
26192;BME280;13935;55.672;37.764;2022-12-04T10:44:39;103257.13;;;-5.85;93.00
26192;BME280;13935;55.672;37.764;2022-12-04T10:45:53;103253.25;;;-6.03;93.26
26192;BME280;13935;55.672;37.764;2022-12-04T10:47:01;103254.44;;;-6.12;92.95
26192;BME280;13935;55.672;37.764;2022-12-04T10:48:32;103256.97;;;-6.04;93.84
26192;BME280;13935;55.672;37.764;2022-12-04T10:49:40;103255.78;;;-6.02;93.44
26192;BME280;13935;55.672;37.764;2022-12-04T10:50:49;103253.69;;;-6.00;92.78
26192;BME280;13935;55.672;37.764;2022-12-04T10:51:52;103255.56;;;-6.00;93.12
26192;BME280;13935;55.672;37.764;2022-12-04T10:52:55;103254.13;;;-5.96;93.65
26192;BME280;13935;55.672;37.764;2022-12-04T10:53:58;103259.16;;;-5.93;93.29
26192;BME280;13935;55.672;37.764;2022-12-04T10:55:02;103255.31;;;-6.05;93.51
26192;BME280;13935;55.672;37.764;2022-12-04T10:56:12;103260.31;;;-6.02;93.01
26192;BME280;13935;55.672;37.764;2022-12-04T10:57:15;103257.47;;;-5.94;93.09
26192;BME280;13935;55.672;37.764;2022-12-04T10:58:18;103253.31;;;-5.97;93.32
26192;BME280;13935;55.672;37.764;2022-12-04T10:59:24;103245.81;;;-6.01;93.77
26192;BME280;13935;55.672;37.764;2022-12-04T11:00:35;103254.91;;;-6.02;94.54
26192;BME280;13935;55.672;37.764;2022-12-04T11:01:38;103259.41;;;-6.09;93.69
26192;BME280;13935;55.672;37.764;2022-12-04T11:02:43;103247.47;;;-6.00;94.24
26192;BME280;13935;55.672;37.764;2022-12-04T11:03:56;103244.34;;;-5.76;94.51
26192;BME280;13935;55.672;37.764;2022-12-04T11:05:07;103253.34;;;-5.90;93.41
26192;BME280;13935;55.672;37.764;2022-12-04T11:06:27;103244.00;;;-5.94;93.76
26192;BME280;13935;55.672;37.764;2022-12-04T11:07:40;103246.13;;;-5.90;93.74
26192;BME280;13935;55.672;37.764;2022-12-04T11:08:49;103251.19;;;-6.01;93.38
26192;BME280;13935;55.672;37.764;2022-12-04T11:10:32;103250.41;;;-5.95;93.90
26192;BME280;13935;55.672;37.764;2022-12-04T11:11:34;103243.69;;;-6.06;94.58
26192;BME280;13935;55.672;37.764;2022-12-04T11:12:37;103243.66;;;-6.12;94.22
26192;BME280;13935;55.672;37.764;2022-12-04T11:13:43;103247.53;;;-5.94;95.50
26192;BME280;13935;55.672;37.764;2022-12-04T11:14:46;103245.91;;;-5.88;95.69
26192;BME280;13935;55.672;37.764;2022-12-04T11:15:55;103245.41;;;-5.98;94.59
26192;BME280;13935;55.672;37.764;2022-12-04T11:17:04;103253.50;;;-5.98;95.50
26192;BME280;13935;55.672;37.764;2022-12-04T11:18:29;103254.91;;;-6.02;95.42
26192;BME280;13935;55.672;37.764;2022-12-04T11:19:33;103247.38;;;-6.13;95.75
26192;BME280;13935;55.672;37.764;2022-12-04T11:20:43;103248.63;;;-6.09;95.68
26192;BME280;13935;55.672;37.764;2022-12-04T11:21:58;103249.50;;;-6.09;95.82
26192;BME280;13935;55.672;37.764;2022-12-04T11:23:03;103259.16;;;-6.35;96.35
26192;BME280;13935;55.672;37.764;2022-12-04T11:24:21;103246.47;;;-6.20;97.44
26192;BME280;13935;55.672;37.764;2022-12-04T11:25:33;103245.50;;;-6.13;97.07
26192;BME280;13935;55.672;37.764;2022-12-04T11:26:36;103248.94;;;-6.25;97.16
26192;BME280;13935;55.672;37.764;2022-12-04T11:27:50;103248.03;;;-6.11;96.77
26192;BME280;13935;55.672;37.764;2022-12-04T11:28:57;103248.72;;;-6.24;97.00
26192;BME280;13935;55.672;37.764;2022-12-04T11:30:12;103251.97;;;-6.07;97.22
26192;BME280;13935;55.672;37.764;2022-12-04T11:31:17;103248.63;;;-6.09;97.09
26192;BME280;13935;55.672;37.764;2022-12-04T11:32:25;103237.03;;;-6.10;96.52
26192;BME280;13935;55.672;37.764;2022-12-04T11:33:38;103242.38;;;-6.16;96.46
26192;BME280;13935;55.672;37.764;2022-12-04T11:34:41;103240.75;;;-6.11;97.32
26192;BME280;13935;55.672;37.764;2022-12-04T11:36:00;103240.31;;;-6.14;97.51
26192;BME280;13935;55.672;37.764;2022-12-04T11:37:04;103242.22;;;-6.08;96.99
26192;BME280;13935;55.672;37.764;2022-12-04T11:38:15;103240.91;;;-6.19;96.84
26192;BME280;13935;55.672;37.764;2022-12-04T11:40:26;103233.66;;;-6.18;97.77
26192;BME280;13935;55.672;37.764;2022-12-04T11:41:31;103231.25;;;-6.07;97.60
26192;BME280;13935;55.672;37.764;2022-12-04T11:42:33;103235.03;;;-6.01;97.04
26192;BME280;13935;55.672;37.764;2022-12-04T11:43:35;103230.56;;;-6.15;97.22
26192;BME280;13935;55.672;37.764;2022-12-04T11:44:39;103232.88;;;-6.12;97.53
26192;BME280;13935;55.672;37.764;2022-12-04T11:46:03;103229.50;;;-6.21;96.86
26192;BME280;13935;55.672;37.764;2022-12-04T11:47:16;103237.75;;;-6.22;97.67
26192;BME280;13935;55.672;37.764;2022-12-04T11:48:18;103234.09;;;-6.42;97.54
26192;BME280;13935;55.672;37.764;2022-12-04T11:49:24;103232.00;;;-6.40;98.71
26192;BME280;13935;55.672;37.764;2022-12-04T11:50:45;103227.16;;;-6.51;98.71
26192;BME280;13935;55.672;37.764;2022-12-04T11:53:49;103227.16;;;-6.30;99.14
26192;BME280;13935;55.672;37.764;2022-12-04T11:55:02;103224.63;;;-6.32;99.62
26192;BME280;13935;55.672;37.764;2022-12-04T11:56:19;103228.94;;;-6.37;99.25
26192;BME280;13935;55.672;37.764;2022-12-04T12:00:50;103225.59;;;-6.39;100.00
26192;BME280;13935;55.672;37.764;2022-12-04T12:03:55;103231.97;;;-6.46;99.82
26192;BME280;13935;55.672;37.764;2022-12-04T12:08:15;103230.75;;;-6.44;99.90
26192;BME280;13935;55.672;37.764;2022-12-04T12:12:03;103233.19;;;-6.49;100.00
26192;BME280;13935;55.672;37.764;2022-12-04T12:16:50;103230.50;;;-6.49;100.00
26192;BME280;13935;55.672;37.764;2022-12-04T12:20:31;103228.56;;;-6.55;100.00
26192;BME280;13935;55.672;37.764;2022-12-04T12:25:34;103226.25;;;-6.58;100.00
26192;BME280;13935;55.672;37.764;2022-12-04T12:27:00;103225.34;;;-6.65;100.00
26192;BME280;13935;55.672;37.764;2022-12-04T12:28:40;103222.09;;;-6.60;100.00
26192;BME280;13935;55.672;37.764;2022-12-04T12:30:07;103220.97;;;-6.66;100.00
26192;BME280;13935;55.672;37.764;2022-12-04T12:34:04;103212.91;;;-6.66;100.00
26192;BME280;13935;55.672;37.764;2022-12-04T12:36:49;103218.28;;;-6.66;100.00
26192;BME280;13935;55.672;37.764;2022-12-04T12:38:18;103218.69;;;-6.69;100.00
26192;BME280;13935;55.672;37.764;2022-12-04T12:39:30;103217.53;;;-6.81;100.00
26192;BME280;13935;55.672;37.764;2022-12-04T12:40:43;103222.03;;;-6.67;100.00
26192;BME280;13935;55.672;37.764;2022-12-04T12:41:55;103224.44;;;-6.72;100.00
26192;BME280;13935;55.672;37.764;2022-12-04T12:43:05;103227.41;;;-6.67;100.00
26192;BME280;13935;55.672;37.764;2022-12-04T12:44:18;103223.06;;;-6.68;100.00
26192;BME280;13935;55.672;37.764;2022-12-04T12:45:47;103224.06;;;-6.69;100.00
26192;BME280;13935;55.672;37.764;2022-12-04T12:47:00;103225.34;;;-6.65;100.00
26192;BME280;13935;55.672;37.764;2022-12-04T12:48:27;103231.13;;;-6.68;100.00
26192;BME280;13935;55.672;37.764;2022-12-04T12:50:09;103229.78;;;-6.78;100.00
26192;BME280;13935;55.672;37.764;2022-12-04T12:53:00;103227.78;;;-6.70;100.00
26192;BME280;13935;55.672;37.764;2022-12-04T12:55:32;103222.97;;;-6.74;100.00
26192;BME280;13935;55.672;37.764;2022-12-04T12:56:45;103227.53;;;-6.75;100.00
26192;BME280;13935;55.672;37.764;2022-12-04T13:03:05;103239.31;;;-6.76;100.00
26192;BME280;13935;55.672;37.764;2022-12-04T13:04:42;103235.19;;;-6.72;100.00
26192;BME280;13935;55.672;37.764;2022-12-04T13:05:47;103232.41;;;-6.64;100.00
26192;BME280;13935;55.672;37.764;2022-12-04T13:07:18;103237.00;;;-6.79;100.00
26192;BME280;13935;55.672;37.764;2022-12-04T13:08:29;103242.75;;;-6.82;100.00
26192;BME280;13935;55.672;37.764;2022-12-04T13:09:39;103236.16;;;-6.79;100.00
26192;BME280;13935;55.672;37.764;2022-12-04T13:11:07;103240.97;;;-6.75;100.00
26192;BME280;13935;55.672;37.764;2022-12-04T13:12:14;103235.97;;;-6.78;100.00
26192;BME280;13935;55.672;37.764;2022-12-04T13:13:22;103240.13;;;-6.75;100.00
26192;BME280;13935;55.672;37.764;2022-12-04T13:14:39;103242.75;;;-6.82;100.00
26192;BME280;13935;55.672;37.764;2022-12-04T13:15:52;103232.38;;;-6.85;100.00
26192;BME280;13935;55.672;37.764;2022-12-04T13:17:01;103237.59;;;-6.83;100.00
26192;BME280;13935;55.672;37.764;2022-12-04T13:18:07;103236.63;;;-6.76;100.00
26192;BME280;13935;55.672;37.764;2022-12-04T13:19:22;103232.16;;;-6.69;100.00
26192;BME280;13935;55.672;37.764;2022-12-04T13:20:32;103239.69;;;-6.79;100.00
26192;BME280;13935;55.672;37.764;2022-12-04T13:21:54;103227.34;;;-6.73;100.00
26192;BME280;13935;55.672;37.764;2022-12-04T13:23:25;103235.47;;;-6.88;100.00
26192;BME280;13935;55.672;37.764;2022-12-04T13:27:05;103232.56;;;-6.86;100.00
26192;BME280;13935;55.672;37.764;2022-12-04T13:31:09;103227.34;;;-6.73;100.00
26192;BME280;13935;55.672;37.764;2022-12-04T13:35:24;103231.59;;;-6.79;100.00
26192;BME280;13935;55.672;37.764;2022-12-04T13:39:41;103233.47;;;-6.79;100.00
26192;BME280;13935;55.672;37.764;2022-12-04T13:41:43;103240.91;;;-6.81;100.00
26192;BME280;13935;55.672;37.764;2022-12-04T13:42:51;103233.16;;;-6.70;100.00
26192;BME280;13935;55.672;37.764;2022-12-04T13:44:00;103236.88;;;-6.71;100.00
26192;BME280;13935;55.672;37.764;2022-12-04T13:45:25;103238.53;;;-6.70;100.00
26192;BME280;13935;55.672;37.764;2022-12-04T13:46:32;103241.09;;;-6.83;100.00
26192;BME280;13935;55.672;37.764;2022-12-04T13:47:36;103238.50;;;-6.76;100.00
26192;BME280;13935;55.672;37.764;2022-12-04T13:48:41;103239.31;;;-6.76;100.00
26192;BME280;13935;55.672;37.764;2022-12-04T13:49:45;103244.03;;;-6.78;100.00
26192;BME280;13935;55.672;37.764;2022-12-04T13:51:07;103235.47;;;-6.88;100.00
26192;BME280;13935;55.672;37.764;2022-12-04T13:52:39;103228.66;;;-6.84;100.00
26192;BME280;13935;55.672;37.764;2022-12-04T13:53:46;103230.06;;;-6.88;100.00
26192;BME280;13935;55.672;37.764;2022-12-04T13:54:57;103239.25;;;-6.82;100.00
26192;BME280;13935;55.672;37.764;2022-12-04T13:56:07;103232.56;;;-6.86;100.00
26192;BME280;13935;55.672;37.764;2022-12-04T13:57:24;103235.34;;;-6.80;100.00
26192;BME280;13935;55.672;37.764;2022-12-04T13:58:31;103233.78;;;-6.89;100.00
26192;BME280;13935;55.672;37.764;2022-12-04T13:59:36;103234.59;;;-6.88;100.00
26192;BME280;13935;55.672;37.764;2022-12-04T14:00:41;103230.53;;;-6.84;100.00
26192;BME280;13935;55.672;37.764;2022-12-04T14:01:50;103225.72;;;-6.89;100.00